createdAt,value
2022-11-13T00:01:40.329Z,97156.00
2022-11-13T00:04:13.234Z,97157.13
2022-11-13T00:06:48.889Z,97157.59
2022-11-13T00:09:22.078Z,97152.56
2022-11-13T00:11:55.259Z,97161.06
2022-11-13T00:14:28.136Z,97149.09
2022-11-13T00:17:01.006Z,97147.97
2022-11-13T00:19:36.166Z,97147.22
2022-11-13T00:22:10.449Z,97146.09
2022-11-13T00:24:43.331Z,97138.41
2022-11-13T00:27:16.168Z,97136.81
2022-11-13T00:29:49.036Z,97131.75
2022-11-13T00:32:22.108Z,97124.53
2022-11-13T00:34:56.775Z,97141.34
2022-11-13T00:37:30.992Z,97123.91
2022-11-13T00:40:06.043Z,97122.03
2022-11-13T00:42:38.848Z,97117.16
2022-11-13T00:45:14.169Z,97118.75
2022-11-13T00:47:47.335Z,97124.28
2022-11-13T00:50:20.734Z,97124.56
2022-11-13T00:52:55.054Z,97116.56
2022-11-13T00:55:27.933Z,97110.72
2022-11-13T00:58:00.742Z,97112.28
2022-11-13T01:00:35.052Z,97105.38
2022-11-13T01:03:07.997Z,97106.47
2022-11-13T01:05:42.619Z,97100.97
2022-11-13T01:08:17.408Z,97102.84
2022-11-13T01:10:53.760Z,97090.03
2022-11-13T01:13:26.862Z,97091.44
2022-11-13T01:16:02.618Z,97085.63
2022-11-13T01:18:35.550Z,97091.59
2022-11-13T01:21:13.093Z,97081.19
2022-11-13T01:23:49.571Z,97082.00
2022-11-13T01:26:25.825Z,97083.09
2022-11-13T01:29:00.300Z,97076.16
2022-11-13T01:31:33.132Z,97078.22
2022-11-13T01:34:05.982Z,97071.78
2022-11-13T01:36:39.067Z,97076.19
2022-11-13T01:39:14.027Z,97066.75
2022-11-13T01:41:46.818Z,97056.84
2022-11-13T01:44:24.322Z,97056.28
2022-11-13T01:46:58.200Z,97044.13
2022-11-13T01:49:35.906Z,97039.44
2022-11-13T01:52:12.233Z,97031.88
2022-11-13T01:54:53.901Z,97036.91
2022-11-13T01:57:26.812Z,97029.53
2022-11-13T02:00:04.102Z,97028.09
2022-11-13T02:02:37.847Z,97022.59
2022-11-13T02:05:10.686Z,97023.41
2022-11-13T02:07:43.781Z,97019.75
2022-11-13T02:10:18.299Z,97017.56
2022-11-13T02:12:52.776Z,97015.69
2022-11-13T02:15:27.837Z,97020.72
2022-11-13T02:18:03.553Z,97013.47
2022-11-13T02:20:43.127Z,97014.41
2022-11-13T02:23:22.154Z,97011.44
2022-11-13T02:25:56.350Z,97011.56
2022-11-13T02:28:29.367Z,97012.06
2022-11-13T02:31:08.748Z,97007.97
2022-11-13T02:33:42.957Z,97003.41
2022-11-13T02:36:16.899Z,96997.75
2022-11-13T02:38:55.611Z,97000.56
2022-11-13T02:41:29.870Z,96997.44
2022-11-13T02:44:02.668Z,96995.53
2022-11-13T02:46:35.757Z,96991.75
2022-11-13T02:49:08.941Z,96992.53
2022-11-13T02:51:41.722Z,96982.94
2022-11-13T02:54:17.364Z,96980.25
2022-11-13T02:56:51.849Z,96970.34
2022-11-13T02:59:24.786Z,96973.03
2022-11-13T03:01:57.579Z,96975.69
2022-11-13T03:04:44.231Z,96967.22
2022-11-13T03:07:23.348Z,96967.22
2022-11-13T03:09:56.928Z,96965.34
2022-11-13T03:12:31.127Z,96968.31
2022-11-13T03:15:04.451Z,96958.22
2022-11-13T03:17:37.285Z,96958.84
2022-11-13T03:20:10.942Z,96960.75
2022-11-13T03:22:43.743Z,96957.13
2022-11-13T03:25:16.697Z,96954.75
2022-11-13T03:27:50.931Z,96954.28
2022-11-13T03:30:24.273Z,96959.50
2022-11-13T03:32:58.152Z,96952.38
2022-11-13T03:35:34.846Z,96954.91
2022-11-13T03:38:12.351Z,96949.38
2022-11-13T03:40:45.704Z,96947.97
2022-11-13T03:43:20.637Z,96945.09
2022-11-13T03:45:53.520Z,96938.81
2022-11-13T03:48:26.753Z,96937.25
2022-11-13T03:51:00.036Z,96931.72
2022-11-13T03:53:32.969Z,96938.81
2022-11-13T03:56:07.110Z,96935.16
2022-11-13T03:58:44.683Z,96934.69
2022-11-13T04:01:20.207Z,96934.84
2022-11-13T04:03:53.064Z,96935.16
2022-11-13T04:06:25.901Z,96926.66
2022-11-13T04:08:58.735Z,96925.06
2022-11-13T04:11:31.615Z,96926.97
2022-11-13T04:14:06.223Z,96922.72
2022-11-13T04:16:39.071Z,96914.22
2022-11-13T04:19:11.908Z,96907.31
2022-11-13T04:21:45.133Z,96909.19
2022-11-13T04:24:18.330Z,96903.06
2022-11-13T04:26:51.431Z,96907.13
2022-11-13T04:29:25.587Z,96903.66
2022-11-13T04:31:58.549Z,96901.94
2022-11-13T04:34:32.395Z,96901.16
2022-11-13T04:37:05.861Z,96895.31
2022-11-13T04:39:38.634Z,96891.06
2022-11-13T04:42:29.306Z,96888.25
2022-11-13T04:45:03.580Z,96890.13
2022-11-13T04:47:36.517Z,96889.97
2022-11-13T04:50:10.163Z,96886.03
2022-11-13T04:52:43.858Z,96881.31
2022-11-13T04:55:16.782Z,96877.38
2022-11-13T04:57:51.676Z,96887.91
2022-11-13T05:00:25.919Z,96882.88
2022-11-13T05:02:59.058Z,96892.56
2022-11-13T05:05:31.961Z,96894.00
2022-11-13T05:08:05.105Z,96886.91
2022-11-13T05:10:38.242Z,96882.16
2022-11-13T05:13:11.102Z,96882.81
2022-11-13T05:15:45.328Z,96885.47
2022-11-13T05:18:18.319Z,96889.06
2022-11-13T05:20:51.157Z,96872.09
2022-11-13T05:23:23.979Z,96867.84
2022-11-13T05:26:02.603Z,96863.91
2022-11-13T05:28:37.597Z,96861.06
2022-11-13T05:31:14.373Z,96860.75
2022-11-13T05:33:48.072Z,96858.72
2022-11-13T05:36:21.259Z,96859.00
2022-11-13T05:38:54.102Z,96856.34
2022-11-13T05:41:27.200Z,96851.31
2022-11-13T05:44:00.342Z,96850.22
2022-11-13T05:46:36.052Z,96846.44
2022-11-13T05:49:11.021Z,96838.75
2022-11-13T05:51:43.845Z,96839.22
2022-11-13T05:54:16.921Z,96836.56
2022-11-13T05:56:49.734Z,96838.44
2022-11-13T05:59:22.617Z,96838.44
2022-11-13T06:01:56.816Z,96833.88
2022-11-13T06:04:30.166Z,96834.50
2022-11-13T06:07:02.990Z,96829.16
2022-11-13T06:09:36.040Z,96831.34
2022-11-13T06:12:09.415Z,96828.66
2022-11-13T06:14:42.314Z,96827.13
2022-11-13T06:17:16.924Z,96826.63
2022-11-13T06:19:49.825Z,96831.97
2022-11-13T06:22:22.598Z,96822.38
2022-11-13T06:24:55.649Z,96824.75
2022-11-13T06:27:28.877Z,96823.97
2022-11-13T06:30:06.653Z,96820.19
2022-11-13T06:32:40.843Z,96827.91
2022-11-13T06:35:13.719Z,96821.78
2022-11-13T06:37:47.131Z,96818.00
2022-11-13T06:40:20.056Z,96813.44
2022-11-13T06:42:54.179Z,96811.88
2022-11-13T06:45:27.073Z,96806.56
2022-11-13T06:48:01.336Z,96809.22
2022-11-13T06:50:34.231Z,96805.56
2022-11-13T06:53:07.235Z,96803.22
2022-11-13T06:55:44.198Z,96808.25
2022-11-13T06:58:17.574Z,96810.44
2022-11-13T07:00:50.552Z,96806.53
2022-11-13T07:03:28.208Z,96808.84
2022-11-13T07:06:03.659Z,96812.94
2022-11-13T07:08:36.862Z,96815.63
2022-11-13T07:11:12.289Z,96812.16
2022-11-13T07:13:45.707Z,96819.88
2022-11-13T07:16:19.126Z,96821.25
2022-11-13T07:18:54.644Z,96822.03
2022-11-13T07:21:27.475Z,96807.44
2022-11-13T07:24:00.276Z,96808.50
2022-11-13T07:26:33.205Z,96811.50
2022-11-13T07:29:06.012Z,96810.69
2022-11-13T07:31:38.846Z,96801.16
2022-11-13T07:34:14.768Z,96797.06
2022-11-13T07:36:47.957Z,96796.56
2022-11-13T07:39:21.028Z,96789.34
2022-11-13T07:41:57.426Z,96785.13
2022-11-13T07:44:53.577Z,96783.84
2022-11-13T07:47:23.450Z,96777.44
2022-11-13T07:50:04.407Z,96773.97
2022-11-13T07:52:41.149Z,96772.41
2022-11-13T07:55:14.011Z,96777.72
2022-11-13T07:57:46.913Z,96770.31
2022-11-13T08:00:20.248Z,96765.00
2022-11-13T08:02:53.219Z,96775.66
2022-11-13T08:05:27.486Z,96772.69
2022-11-13T08:08:00.342Z,96771.13
2022-11-13T08:10:33.972Z,96782.28
2022-11-13T08:13:08.471Z,96776.63
2022-11-13T08:15:41.323Z,96774.75
2022-11-13T08:18:14.162Z,96764.88
2022-11-13T08:20:48.474Z,96768.47
2022-11-13T08:23:21.365Z,96759.69
2022-11-13T08:25:54.596Z,96760.47
2022-11-13T08:28:27.672Z,96768.97
2022-11-13T08:31:00.946Z,96770.25
2022-11-13T08:33:33.775Z,96769.91
2022-11-13T08:36:08.984Z,96770.56
2022-11-13T08:38:41.884Z,96762.88
2022-11-13T08:41:14.797Z,96760.03
2022-11-13T08:43:48.661Z,96765.88
2022-11-13T08:46:23.799Z,96767.91
2022-11-13T08:48:57.973Z,96761.19
2022-11-13T08:51:32.190Z,96756.78
2022-11-13T08:54:05.678Z,96751.63
2022-11-13T08:56:38.562Z,96742.16
2022-11-13T08:59:12.050Z,96733.25
2022-11-13T09:01:47.417Z,96736.06
2022-11-13T09:04:22.911Z,96731.97
2022-11-13T09:06:57.567Z,96732.59
2022-11-13T09:09:30.588Z,96728.84
2022-11-13T09:12:03.409Z,96736.53
2022-11-13T09:14:37.159Z,96726.34
2022-11-13T09:17:09.980Z,96718.31
2022-11-13T09:19:43.014Z,96716.75
2022-11-13T09:22:17.169Z,96725.25
2022-11-13T09:24:50.132Z,96722.09
2022-11-13T09:27:24.323Z,96722.56
2022-11-13T09:29:57.517Z,96725.25
2022-11-13T09:32:30.500Z,96736.72
2022-11-13T09:35:03.388Z,96720.38
2022-11-13T09:37:38.864Z,96710.78
2022-11-13T09:40:28.302Z,96703.69
2022-11-13T09:43:03.255Z,96698.84
2022-11-13T09:45:36.379Z,96706.53
2022-11-13T09:48:20.355Z,96706.69
2022-11-13T09:50:54.121Z,96720.53
2022-11-13T09:53:34.397Z,96734.03
2022-11-13T09:56:20.593Z,96727.75
2022-11-13T09:59:01.806Z,96715.47
2022-11-13T10:01:48.858Z,96722.09
2022-11-13T10:04:30.763Z,96702.75
2022-11-13T10:07:13.771Z,96706.66
2022-11-13T10:10:02.705Z,96699.44
2022-11-13T10:12:36.326Z,96685.13
2022-11-13T10:15:12.312Z,96701.47
2022-11-13T10:17:50.385Z,96691.72
2022-11-13T10:20:26.597Z,96689.34
2022-11-13T10:23:08.493Z,96696.88
2022-11-13T10:25:44.968Z,96678.75
2022-11-13T10:31:16.332Z,96685.31
2022-11-13T10:33:52.634Z,96690.97
2022-11-13T10:36:38.125Z,96692.19
2022-11-13T10:39:14.490Z,96681.28
2022-11-13T10:41:51.059Z,96677.78
2022-11-13T10:44:27.240Z,96666.44
2022-11-13T10:47:14.236Z,96657.88
2022-11-13T10:49:47.091Z,96656.47
2022-11-13T10:52:22.617Z,96653.78
2022-11-13T10:55:18.404Z,96665.75
2022-11-13T10:58:01.953Z,96659.72
2022-11-13T11:00:36.813Z,96648.56
2022-11-13T11:03:10.437Z,96654.38
2022-11-13T11:05:53.659Z,96658.28
2022-11-13T11:08:31.620Z,96654.03
2022-11-13T11:11:31.692Z,96642.56
2022-11-13T11:14:21.002Z,96640.66
2022-11-13T11:16:54.766Z,96639.41
2022-11-13T11:19:31.995Z,96646.81
2022-11-13T11:22:10.720Z,96639.09
2022-11-13T11:24:51.340Z,96631.53
2022-11-13T11:27:29.400Z,96623.16
2022-11-13T11:30:07.806Z,96606.00
2022-11-13T11:32:45.408Z,96600.97
2022-11-13T11:35:22.075Z,96604.44
2022-11-13T11:38:00.868Z,96602.84
2022-11-13T11:40:39.727Z,96606.00
2022-11-13T11:43:20.879Z,96609.91
2022-11-13T11:45:55.634Z,96609.13
2022-11-13T11:48:32.848Z,96593.81
2022-11-13T11:51:15.968Z,96577.00
2022-11-13T11:54:00.153Z,96562.03
2022-11-13T11:56:36.478Z,96560.78
2022-11-13T11:59:37.264Z,96555.91
2022-11-13T12:02:53.573Z,96566.28
2022-11-13T12:05:31.181Z,96567.72
2022-11-13T12:08:16.186Z,96552.44
2022-11-13T12:10:58.057Z,96541.28
2022-11-13T12:13:31.470Z,96543.16
2022-11-13T12:16:10.794Z,96550.97
2022-11-13T12:18:52.641Z,96559.03
2022-11-13T12:21:29.417Z,96556.22
2022-11-13T12:24:29.098Z,96562.84
2022-11-13T12:27:19.767Z,96547.41
2022-11-13T12:30:05.588Z,96533.88
2022-11-13T12:33:03.694Z,96533.78
2022-11-13T12:35:39.938Z,96537.41
2022-11-13T12:38:25.001Z,96551.91
2022-11-13T12:41:04.634Z,96535.41
2022-11-13T12:43:52.439Z,96536.97
2022-11-13T12:46:35.283Z,96528.28
2022-11-13T12:49:28.551Z,96515.03
2022-11-13T12:52:05.518Z,96499.44
2022-11-13T12:54:38.822Z,96508.69
2022-11-13T12:57:24.443Z,96518.75
2022-11-13T13:00:23.499Z,96512.75
2022-11-13T13:03:16.716Z,96516.63
2022-11-13T13:06:10.409Z,96510.38
2022-11-13T13:08:57.748Z,96505.03
2022-11-13T13:11:40.463Z,96509.59
2022-11-13T13:14:26.921Z,96503.31
2022-11-13T13:17:07.579Z,96512.03
2022-11-13T13:19:41.030Z,96523.06
2022-11-13T13:22:29.259Z,96516.13
2022-11-13T13:25:10.582Z,96515.66
2022-11-13T13:27:57.203Z,96517.88
2022-11-13T13:30:37.680Z,96521.34
2022-11-13T13:33:22.677Z,96529.97
2022-11-13T13:36:03.994Z,96518.50
2022-11-13T13:38:50.917Z,96513.13
2022-11-13T13:41:41.769Z,96511.25
2022-11-13T13:44:32.082Z,96507.88
2022-11-13T13:47:14.061Z,96506.31
2022-11-13T13:49:47.367Z,96500.97
2022-11-13T13:52:25.123Z,96500.19
2022-11-13T13:54:59.062Z,96497.19
2022-11-13T13:57:33.530Z,96494.19
2022-11-13T14:00:12.899Z,96494.31
2022-11-13T14:02:48.571Z,96494.31
2022-11-13T14:05:28.672Z,96487.97
2022-11-13T14:08:07.716Z,96494.09
2022-11-13T14:10:41.243Z,96481.81
2022-11-13T14:13:16.477Z,96479.94
2022-11-13T14:15:49.331Z,96478.25
2022-11-13T14:18:22.394Z,96475.25
2022-11-13T14:20:57.408Z,96472.13
2022-11-13T14:23:33.585Z,96482.03
2022-11-13T14:26:07.702Z,96477.00
2022-11-13T14:29:24.054Z,96471.31
2022-11-13T14:32:03.737Z,96463.94
2022-11-13T14:34:38.265Z,96464.72
2022-11-13T14:37:25.712Z,96476.69
2022-11-13T14:40:02.147Z,96469.28
2022-11-13T14:42:39.084Z,96470.09
2022-11-13T14:45:19.586Z,96469.28
2022-11-13T14:48:02.009Z,96464.63
2022-11-13T14:50:38.535Z,96462.59
2022-11-13T14:53:13.094Z,96467.47
2022-11-13T14:55:52.660Z,96465.91
2022-11-13T14:58:32.607Z,96466.25
2022-11-13T15:01:19.399Z,96460.78
2022-11-13T15:03:54.150Z,96468.66
2022-11-13T15:06:35.764Z,96466.31
2022-11-13T15:09:15.168Z,96466.31
2022-11-13T15:11:48.284Z,96460.53
2022-11-13T15:14:22.862Z,96458.97
2022-11-13T15:16:58.821Z,96454.72
2022-11-13T15:19:34.685Z,96446.22
2022-11-13T15:22:27.700Z,96455.03
2022-11-13T15:25:01.172Z,96458.03
2022-11-13T15:27:42.895Z,96468.09
2022-11-13T15:30:16.947Z,96470.00
2022-11-13T15:32:54.205Z,96478.81
2022-11-13T15:35:27.214Z,96481.47
2022-11-13T15:38:00.142Z,96468.75
2022-11-13T15:40:32.971Z,96461.38
2022-11-13T15:43:06.303Z,96451.00
2022-11-13T15:45:44.030Z,96462.03
2022-11-13T15:48:18.887Z,96465.50
2022-11-13T15:50:51.786Z,96464.25
2022-11-13T15:53:24.929Z,96468.03
2022-11-13T15:56:02.868Z,96476.72
2022-11-13T15:58:35.712Z,96478.16
2022-11-13T16:01:09.449Z,96479.56
2022-11-13T16:03:43.872Z,96470.66
2022-11-13T16:06:19.239Z,96470.19
2022-11-13T16:08:52.123Z,96468.47
2022-11-13T16:11:25.050Z,96471.03
2022-11-13T16:13:57.919Z,96469.78
2022-11-13T16:16:34.081Z,96474.81
2022-11-13T16:19:14.731Z,96471.66
2022-11-13T16:21:47.553Z,96477.34
2022-11-13T16:24:24.083Z,96472.78
2022-11-13T16:26:58.928Z,96477.03
2022-11-13T16:29:31.802Z,96474.66
2022-11-13T16:32:04.622Z,96474.34
2022-11-13T16:34:39.704Z,96471.34
2022-11-13T16:37:18.198Z,96471.34
2022-11-13T16:39:52.061Z,96475.13
2022-11-13T16:42:29.821Z,96470.09
2022-11-13T16:45:03.750Z,96462.44
2022-11-13T16:47:36.864Z,96452.84
2022-11-13T16:50:17.611Z,96441.03
2022-11-13T16:52:50.471Z,96445.59
2022-11-13T16:55:23.591Z,96461.16
2022-11-13T16:57:56.560Z,96461.47
2022-11-13T17:00:29.413Z,96457.53
2022-11-13T17:03:02.216Z,96460.22
2022-11-13T17:05:36.734Z,96452.19
2022-11-13T17:08:15.843Z,96441.19
2022-11-13T17:11:00.088Z,96443.06
2022-11-13T17:13:32.930Z,96449.84
2022-11-13T17:16:08.691Z,96447.16
2022-11-13T17:18:41.877Z,96441.06
2022-11-13T17:21:16.985Z,96438.38
2022-11-13T17:23:57.647Z,96438.38
2022-11-13T17:26:31.650Z,96438.72
2022-11-13T17:29:06.377Z,96439.81
2022-11-13T17:31:39.293Z,96449.84
2022-11-13T17:34:12.462Z,96442.59
2022-11-13T17:36:46.742Z,96447.31
2022-11-13T17:39:19.564Z,96451.56
2022-11-13T17:41:52.396Z,96451.56
2022-11-13T17:44:25.224Z,96449.38
2022-11-13T17:46:58.138Z,96463.19
2022-11-13T17:49:31.132Z,96456.41
2022-11-13T17:52:05.569Z,96437.03
2022-11-13T17:54:38.439Z,96425.25
2022-11-13T17:57:11.723Z,96416.88
2022-11-13T17:59:44.575Z,96423.47
2022-11-13T18:02:17.451Z,96423.91
2022-11-13T18:04:50.245Z,96428.16
2022-11-13T18:07:24.549Z,96432.53
2022-11-13T18:09:58.474Z,96430.31
2022-11-13T18:12:34.244Z,96434.22
2022-11-13T18:15:08.137Z,96430.88
2022-11-13T18:17:40.965Z,96434.34
2022-11-13T18:20:14.067Z,96438.72
2022-11-13T18:22:48.522Z,96434.94
2022-11-13T18:25:21.651Z,96430.06
2022-11-13T18:27:54.679Z,96432.38
2022-11-13T18:30:27.578Z,96441.66
2022-11-13T18:33:00.480Z,96445.56
2022-11-13T18:35:34.573Z,96446.69
2022-11-13T18:38:08.843Z,96443.69
2022-11-13T18:40:43.103Z,96438.66
2022-11-13T18:43:16.397Z,96438.34
2022-11-13T18:45:57.169Z,96455.28
2022-11-13T18:48:33.913Z,96455.59
2022-11-13T18:51:08.989Z,96462.53
2022-11-13T18:53:45.712Z,96472.13
2022-11-13T18:56:20.135Z,96472.91
2022-11-13T18:58:54.654Z,96469.91
2022-11-13T19:01:29.712Z,96463.13
2022-11-13T19:04:22.417Z,96452.41
2022-11-13T19:06:56.159Z,96442.16
2022-11-13T19:09:30.698Z,96436.47
2022-11-13T19:12:04.793Z,96430.31
2022-11-13T19:14:37.706Z,96414.72
2022-11-13T19:17:10.895Z,96389.06
2022-11-13T19:19:44.577Z,96387.94
2022-11-13T19:22:17.359Z,96385.16
2022-11-13T19:24:51.750Z,96387.41
2022-11-13T19:27:24.551Z,96401.44
2022-11-13T19:29:57.780Z,96415.13
2022-11-13T19:32:30.917Z,96418.50
2022-11-13T19:35:03.882Z,96425.28
2022-11-13T19:37:36.877Z,96431.28
2022-11-13T19:40:12.987Z,96441.97
2022-11-13T19:42:46.082Z,96436.06
2022-11-13T19:45:19.492Z,96429.13
2022-11-13T19:47:52.306Z,96426.78
2022-11-13T19:50:27.410Z,96426.78
2022-11-13T19:53:00.216Z,96435.13
2022-11-13T19:55:35.298Z,96447.06
2022-11-13T19:58:08.184Z,96446.28
2022-11-13T20:00:41.064Z,96454.00
2022-11-13T20:03:13.917Z,96448.31
2022-11-13T20:05:47.186Z,96452.91
2022-11-13T20:08:24.073Z,96460.91
2022-11-13T20:11:04.441Z,96462.91
2022-11-13T20:13:39.010Z,96464.06
2022-11-13T20:16:14.737Z,96457.56
2022-11-13T20:18:48.565Z,96447.66
2022-11-13T20:21:26.706Z,96443.53
2022-11-13T20:24:00.744Z,96430.81
2022-11-13T20:26:35.094Z,96416.66
2022-11-13T20:29:09.670Z,96416.66
2022-11-13T20:31:43.510Z,96404.84
2022-11-13T20:34:16.351Z,96405.97
2022-11-13T20:36:50.233Z,96413.66
2022-11-13T20:39:23.152Z,96407.50
2022-11-13T20:41:58.208Z,96409.41
2022-11-13T20:44:31.015Z,96402.94
2022-11-13T20:47:04.049Z,96404.03
2022-11-13T20:49:36.886Z,96404.50
2022-11-13T20:52:10.948Z,96410.97
2022-11-13T20:54:43.743Z,96418.22
2022-11-13T20:57:21.333Z,96424.03
2022-11-13T20:59:54.300Z,96425.91
2022-11-13T21:02:27.281Z,96419.00
2022-11-13T21:05:00.294Z,96419.78
2022-11-13T21:07:33.499Z,96406.41
2022-11-13T21:10:07.500Z,96409.06
2022-11-13T21:12:41.972Z,96406.06
2022-11-13T21:15:14.827Z,96395.38
2022-11-13T21:17:47.701Z,96392.69
2022-11-13T21:20:20.578Z,96387.03
2022-11-13T21:22:53.440Z,96392.38
2022-11-13T21:25:26.304Z,96388.13
2022-11-13T21:28:00.526Z,96388.91
2022-11-13T21:30:33.457Z,96392.38
2022-11-13T21:33:06.404Z,96376.63
2022-11-13T21:35:39.246Z,96380.09
2022-11-13T21:38:12.356Z,96380.88
2022-11-13T21:41:05.644Z,96372.06
2022-11-13T21:43:39.963Z,96370.97
2022-11-13T21:46:14.333Z,96373.31
2022-11-13T21:48:47.683Z,96371.75
2022-11-13T21:51:20.486Z,96366.06
2022-11-13T21:53:53.632Z,96364.16
2022-11-13T21:56:28.454Z,96366.06
2022-11-13T21:59:02.843Z,96364.97
2022-11-13T22:01:38.624Z,96371.41
2022-11-13T22:04:11.780Z,96382.91
2022-11-13T22:06:48.738Z,96389.47
2022-11-13T22:09:24.125Z,96381.00
2022-11-13T22:11:57.020Z,96382.56
2022-11-13T22:14:31.282Z,96378.34
2022-11-13T22:17:04.166Z,96373.78
2022-11-13T22:19:37.026Z,96369.97
2022-11-13T22:22:09.937Z,96369.16
2022-11-13T22:24:42.910Z,96367.63
2022-11-13T22:27:17.702Z,96366.06
2022-11-13T22:29:52.538Z,96362.59
2022-11-13T22:32:25.494Z,96367.50
2022-11-13T22:34:58.333Z,96369.06
2022-11-13T22:37:31.352Z,96365.59
2022-11-13T22:40:04.423Z,96357.91
2022-11-13T22:42:37.268Z,96350.97
2022-11-13T22:45:23.339Z,96354.91
2022-11-13T22:47:56.773Z,96344.84
2022-11-13T22:50:29.647Z,96348.31
2022-11-13T22:53:02.482Z,96333.81
2022-11-13T22:55:36.426Z,96334.59
2022-11-13T22:58:09.259Z,96333.03
2022-11-13T23:00:43.719Z,96330.34
2022-11-13T23:03:16.551Z,96318.88
2022-11-13T23:05:49.724Z,96315.09
2022-11-13T23:08:22.664Z,96318.88
2022-11-13T23:10:56.682Z,96324.22
2022-11-13T23:13:29.535Z,96324.22
2022-11-13T23:16:03.990Z,96331.13
2022-11-13T23:18:36.839Z,96330.69
2022-11-13T23:21:11.243Z,96309.28
2022-11-13T23:23:48.062Z,96307.38
2022-11-13T23:26:21.180Z,96317.31
2022-11-13T23:28:58.576Z,96316.09
2022-11-13T23:31:43.715Z,96309.16
2022-11-13T23:34:52.731Z,96299.91
2022-11-13T23:37:15.797Z,96300.13
2022-11-13T23:39:49.189Z,96303.44
2022-11-13T23:42:39.218Z,96299.22
2022-11-13T23:45:16.533Z,96299.53
2022-11-13T23:47:52.806Z,96297.06
2022-11-13T23:50:26.676Z,96298.97
2022-11-13T23:52:59.760Z,96287.34
2022-11-13T23:55:33.540Z,96281.22
2022-11-13T23:58:15.078Z,96266.31
